Alvarado, Texas
Current Conditions -  °F | °C
As of 4:35 AM on Thursday 27 Nov 2014 (Local Time) from KFWS Reporting Station
Clear Clear  
Wind Chill: 34°   Ceiling: Unl
Heat Index: 39°   Visibility: 10mi
Dew Point: 28°   Wind: 7mph
Humidity: 66%   Direction: 10°N
Pressure: 30.48"   Gusts: NA
Location:  32.41°N, 97.21°W
Report Text: KFWS 271035Z AUTO 01006KT 10SM CLR 04/M02 A3048 RMK AO2 T00381021
Loading
Personal Weather Stations






























Interactive Weather Map New forecast layout! Learn more

10-Day Weather Forecast

Advertisements
Track Severe Weather on mobile